createdAt,value
2024-02-29T00:01:15.852Z,101201.56
2024-02-29T00:04:17.936Z,101201.56
2024-02-29T00:07:19.748Z,101201.56
2024-02-29T00:10:22.115Z,101203.19
2024-02-29T00:13:24.419Z,101211.00
2024-02-29T00:16:26.217Z,101214.63
2024-02-29T00:19:29.080Z,101210.72
2024-02-29T00:22:30.927Z,101215.84
2024-02-29T00:25:32.716Z,101212.44
2024-02-29T00:28:34.546Z,101213.53
2024-02-29T00:31:36.479Z,101216.03
2024-02-29T00:34:38.266Z,101207.22
2024-02-29T00:37:40.124Z,101211.94
2024-02-29T00:40:41.905Z,101216.63
2024-02-29T00:43:43.747Z,101213.72
2024-02-29T00:46:45.580Z,101218.16
2024-02-29T00:49:47.360Z,101211.88
2024-02-29T00:52:49.083Z,101210.72
2024-02-29T00:55:51.120Z,101214.19
2024-02-29T00:58:52.904Z,101205.50
2024-02-29T01:01:56.648Z,101203.81
2024-02-29T01:04:58.788Z,101206.41
2024-02-29T01:08:00.567Z,101203.97
2024-02-29T01:11:04.792Z,101201.47
2024-02-29T01:14:06.729Z,101197.66
2024-02-29T01:17:08.485Z,101198.91
2024-02-29T01:20:10.861Z,101197.06
2024-02-29T01:23:12.596Z,101195.03
2024-02-29T01:26:14.676Z,101194.53
2024-02-29T01:29:16.483Z,101191.72
2024-02-29T01:32:22.792Z,101187.19
2024-02-29T01:35:29.000Z,101187.56
2024-02-29T01:38:33.133Z,101191.16
2024-02-29T01:41:34.897Z,101190.22
2024-02-29T01:44:48.295Z,101185.66
2024-02-29T01:47:50.069Z,101188.16
2024-02-29T01:50:52.099Z,101190.28
2024-02-29T01:53:53.885Z,101179.47
2024-02-29T01:56:56.733Z,101184.91
2024-02-29T01:59:58.889Z,101185.09
2024-02-29T02:03:00.680Z,101184.00
2024-02-29T02:06:02.492Z,101181.41
2024-02-29T02:09:04.985Z,101189.78
2024-02-29T02:12:07.217Z,101189.78
2024-02-29T02:15:09.562Z,101186.84
2024-02-29T02:18:11.377Z,101181.38
2024-02-29T02:21:13.178Z,101185.53
2024-02-29T02:24:15.014Z,101178.81
2024-02-29T02:27:16.825Z,101175.47
2024-02-29T02:30:18.584Z,101184.50
2024-02-29T02:33:24.205Z,101178.50
2024-02-29T02:36:26.021Z,101182.41
2024-02-29T02:39:27.912Z,101186.97
2024-02-29T02:42:29.714Z,101175.78
2024-02-29T02:45:31.868Z,101175.88
2024-02-29T02:48:33.686Z,101161.09
2024-02-29T02:51:35.453Z,101165.16
2024-02-29T02:54:37.845Z,101153.88
2024-02-29T02:57:39.680Z,101156.56
2024-02-29T03:00:41.497Z,101155.50
2024-02-29T03:03:43.309Z,101163.47
2024-02-29T03:06:45.104Z,101160.66
2024-02-29T03:09:47.501Z,101167.91
2024-02-29T03:12:50.326Z,101174.53
2024-02-29T03:15:52.144Z,101165.13
2024-02-29T03:18:54.147Z,101172.50
2024-02-29T03:21:55.952Z,101167.84
2024-02-29T03:24:58.369Z,101169.41
2024-02-29T03:28:00.193Z,101165.47
2024-02-29T03:31:02.107Z,101170.44
2024-02-29T03:34:04.214Z,101167.78
2024-02-29T03:37:06.213Z,101168.09
2024-02-29T03:40:08.945Z,101171.47
2024-02-29T03:43:11.953Z,101176.72
2024-02-29T03:46:13.844Z,101170.69
2024-02-29T03:49:15.715Z,101173.84
2024-02-29T03:52:17.641Z,101174.38
2024-02-29T03:55:19.462Z,101187.50
2024-02-29T03:58:21.382Z,101190.16
2024-02-29T04:01:23.489Z,101193.34
2024-02-29T04:04:25.368Z,101187.56
2024-02-29T04:07:27.108Z,101183.63
2024-02-29T04:10:29.080Z,101190.19
2024-02-29T04:13:31.855Z,101186.78
2024-02-29T04:16:37.876Z,101186.50
2024-02-29T04:19:39.660Z,101184.66
2024-02-29T04:22:41.604Z,101186.78
2024-02-29T04:25:46.451Z,101187.03
2024-02-29T04:28:49.486Z,101194.66
2024-02-29T04:31:51.256Z,101185.22
2024-02-29T04:34:53.949Z,101181.28
2024-02-29T04:37:55.732Z,101186.53
2024-02-29T04:40:57.493Z,101183.38
2024-02-29T04:43:59.241Z,101190.19
2024-02-29T04:47:01.094Z,101190.19
2024-02-29T04:50:04.413Z,101189.16
2024-02-29T04:53:06.302Z,101185.97
2024-02-29T04:56:08.144Z,101190.97
2024-02-29T04:59:11.258Z,101194.38
2024-02-29T05:02:13.176Z,101197.22
2024-02-29T05:05:15.446Z,101198.59
2024-02-29T05:08:17.239Z,101201.97
2024-02-29T05:11:19.110Z,101201.72
2024-02-29T05:14:21.261Z,101206.44
2024-02-29T05:17:23.131Z,101195.91
2024-02-29T05:20:24.971Z,101200.66
2024-02-29T05:23:26.748Z,101201.72
2024-02-29T05:26:28.489Z,101200.41
2024-02-29T05:29:30.266Z,101189.91
2024-02-29T05:32:32.125Z,101191.22
2024-02-29T05:35:34.430Z,101193.56
2024-02-29T05:38:36.189Z,101201.72
2024-02-29T05:41:38.168Z,101194.88
2024-02-29T05:44:40.639Z,101199.03
2024-02-29T05:47:42.650Z,101206.19
2024-02-29T05:50:44.475Z,101208.81
2024-02-29T05:53:46.362Z,101209.84
2024-02-29T05:56:48.187Z,101216.91
2024-02-29T05:59:49.955Z,101219.00
2024-02-29T06:02:53.108Z,101211.63
2024-02-29T06:05:55.225Z,101212.41
2024-02-29T06:08:56.988Z,101206.34
2024-02-29T06:11:58.757Z,101215.78
2024-02-29T06:15:05.240Z,101217.63
2024-02-29T06:18:08.481Z,101216.03
2024-02-29T06:21:10.329Z,101213.34
2024-02-29T06:24:12.127Z,101206.75
2024-02-29T06:27:13.883Z,101213.81
2024-02-29T06:30:18.012Z,101205.13
2024-02-29T06:33:22.683Z,101210.28
2024-02-29T06:36:24.769Z,101204.47
2024-02-29T06:39:26.628Z,101214.69
2024-02-29T06:42:28.430Z,101213.31
2024-02-29T06:45:30.223Z,101211.44
2024-02-29T06:48:32.317Z,101217.75
2024-02-29T06:51:34.806Z,101216.63
2024-02-29T06:54:37.152Z,101223.25
2024-02-29T06:57:39.135Z,101223.16
2024-02-29T07:00:41.830Z,101224.34
2024-02-29T07:03:43.710Z,101220.63
2024-02-29T07:06:45.581Z,101220.09
2024-02-29T07:09:47.893Z,101223.59
2024-02-29T07:12:50.482Z,101218.19
2024-02-29T07:15:52.656Z,101207.22
2024-02-29T07:18:54.534Z,101210.59
2024-02-29T07:21:56.375Z,101216.03
2024-02-29T07:24:58.380Z,101212.44
2024-02-29T07:28:00.305Z,101214.47
2024-02-29T07:31:03.023Z,101203.34
2024-02-29T07:34:05.113Z,101201.41
2024-02-29T07:37:07.295Z,101199.09
2024-02-29T07:40:15.227Z,101205.53
2024-02-29T07:43:23.441Z,101193.06
2024-02-29T07:46:25.521Z,101196.91
2024-02-29T07:49:27.961Z,101191.22
2024-02-29T07:52:29.835Z,101196.56
2024-02-29T07:55:34.579Z,101183.88
2024-02-29T07:58:36.399Z,101188.78
2024-02-29T08:01:44.092Z,101184.97
2024-02-29T08:04:48.989Z,101188.81
2024-02-29T08:07:50.818Z,101181.84
2024-02-29T08:10:54.744Z,101180.97
2024-02-29T08:13:57.306Z,101173.84
2024-02-29T08:16:59.731Z,101172.25
2024-02-29T08:20:03.815Z,101176.47
2024-02-29T08:23:05.723Z,101170.59
2024-02-29T08:26:09.073Z,101186.97
2024-02-29T08:29:14.668Z,101185.38
2024-02-29T08:32:16.779Z,101176.53
2024-02-29T08:35:19.871Z,101176.66
2024-02-29T08:38:21.920Z,101182.19
2024-02-29T08:41:23.724Z,101166.94
2024-02-29T08:44:25.454Z,101165.91
2024-02-29T08:47:27.259Z,101170.09
2024-02-29T08:50:29.084Z,101180.94
2024-02-29T08:53:30.858Z,101175.03
2024-02-29T08:56:32.653Z,101171.84
2024-02-29T08:59:34.843Z,101157.63
2024-02-29T09:02:36.731Z,101164.06
2024-02-29T09:05:38.503Z,101166.44
2024-02-29T09:08:41.072Z,101171.47
2024-02-29T09:11:42.884Z,101175.22
2024-02-29T09:14:46.224Z,101169.81
2024-02-29T09:17:53.822Z,101166.84
2024-02-29T09:20:58.449Z,101158.59
2024-02-29T09:24:03.762Z,101157.97
2024-02-29T09:27:06.029Z,101159.66
2024-02-29T09:30:08.085Z,101160.47
2024-02-29T09:33:09.843Z,101160.31
2024-02-29T09:36:12.453Z,101165.19
2024-02-29T09:39:14.360Z,101158.00
2024-02-29T09:42:17.213Z,101153.59
2024-02-29T09:45:25.419Z,101157.34
2024-02-29T09:48:28.750Z,101150.63
2024-02-29T09:51:31.653Z,101154.38
2024-02-29T09:54:35.577Z,101148.59
2024-02-29T09:57:37.783Z,101153.09
2024-02-29T10:00:39.680Z,101144.03
2024-02-29T10:03:43.487Z,101152.94
2024-02-29T10:06:45.968Z,101148.22
2024-02-29T10:09:49.406Z,101142.38
2024-02-29T10:12:58.235Z,101146.25
2024-02-29T10:16:00.215Z,101139.50
2024-02-29T10:19:03.768Z,101142.13
2024-02-29T10:22:05.671Z,101141.31
2024-02-29T10:25:16.593Z,101143.91
2024-02-29T10:28:20.478Z,101139.06
2024-02-29T10:31:22.298Z,101131.47
2024-02-29T10:34:24.618Z,101131.94
2024-02-29T10:37:26.494Z,101124.66
2024-02-29T10:40:28.391Z,101122.78
2024-02-29T10:43:34.802Z,101114.41
2024-02-29T10:46:42.952Z,101116.09
2024-02-29T10:49:53.557Z,101116.59
2024-02-29T10:53:22.469Z,101114.47
2024-02-29T10:56:28.692Z,101114.38
2024-02-29T10:59:31.739Z,101114.13
2024-02-29T11:02:34.003Z,101112.06
2024-02-29T11:05:38.158Z,101107.63
2024-02-29T11:08:41.101Z,101103.28
2024-02-29T11:11:47.985Z,101106.19
2024-02-29T11:14:50.121Z,101104.78
2024-02-29T11:17:51.933Z,101088.59
2024-02-29T11:21:06.844Z,101098.84
2024-02-29T11:24:10.897Z,101086.91
2024-02-29T11:27:13.484Z,101081.19
2024-02-29T11:30:19.980Z,101069.84
2024-02-29T11:33:21.875Z,101067.53
2024-02-29T11:36:24.813Z,101060.47
2024-02-29T11:39:26.613Z,101067.53
2024-02-29T11:42:28.515Z,101058.06
2024-02-29T11:45:30.458Z,101055.97
2024-02-29T11:48:32.249Z,101061.63
2024-02-29T11:51:34.073Z,101050.66
2024-02-29T11:54:36.000Z,101051.66
2024-02-29T11:57:37.827Z,101046.09
2024-02-29T12:00:39.778Z,101041.75
2024-02-29T12:09:09.724Z,101032.72
2024-02-29T12:12:18.929Z,101036.00
2024-02-29T12:15:45.053Z,101033.75
2024-02-29T12:18:53.883Z,101035.00
2024-02-29T12:21:56.059Z,101018.88
2024-02-29T12:24:58.667Z,101019.41
2024-02-29T12:28:00.826Z,101003.88
2024-02-29T12:31:02.670Z,101003.75
2024-02-29T12:34:04.688Z,101006.88
2024-02-29T12:37:20.395Z,101007.41
2024-02-29T12:40:22.383Z,101000.53
2024-02-29T12:43:24.258Z,100999.63
2024-02-29T12:46:27.637Z,101008.63
2024-02-29T12:49:29.646Z,101002.97
2024-02-29T12:52:31.709Z,101001.41
2024-02-29T12:55:33.654Z,100998.59
2024-02-29T12:58:35.599Z,100997.69
2024-02-29T13:01:38.989Z,100998.00
2024-02-29T13:04:41.467Z,100990.03
2024-02-29T13:07:43.886Z,100991.25
2024-02-29T13:10:45.646Z,100981.47
2024-02-29T13:13:47.679Z,100982.09
2024-02-29T13:16:49.824Z,100972.22
2024-02-29T13:19:51.543Z,100969.13
2024-02-29T13:22:53.285Z,100965.91
2024-02-29T13:25:55.508Z,100960.75
2024-02-29T13:28:57.469Z,100956.75
2024-02-29T13:32:01.207Z,100952.63
2024-02-29T13:35:05.284Z,100943.81
2024-02-29T13:38:07.147Z,100935.53
2024-02-29T13:41:09.126Z,100941.66
2024-02-29T13:44:10.971Z,100931.22
2024-02-29T13:47:16.429Z,100931.88
2024-02-29T13:50:20.540Z,100930.25
2024-02-29T13:53:22.451Z,100932.06
2024-02-29T13:56:26.743Z,100925.41
2024-02-29T13:59:31.622Z,100923.69
2024-02-29T14:02:34.171Z,100927.25
2024-02-29T14:05:36.257Z,100916.81
2024-02-29T14:08:38.086Z,100915.25
2024-02-29T14:11:40.727Z,100912.44
2024-02-29T14:14:42.768Z,100910.81
2024-02-29T14:17:44.632Z,100914.16
2024-02-29T14:20:46.412Z,100917.69
2024-02-29T14:23:48.190Z,100917.34
2024-02-29T14:26:52.668Z,100903.69
2024-02-29T14:29:54.522Z,100904.28
2024-02-29T14:32:58.838Z,100910.28
2024-02-29T14:36:01.016Z,100906.53
2024-02-29T14:39:03.396Z,100901.72
2024-02-29T14:42:24.195Z,100897.47
2024-02-29T14:45:26.390Z,100887.97
2024-02-29T14:48:28.307Z,100888.53
2024-02-29T14:51:30.256Z,100880.03
2024-02-29T14:54:32.332Z,100881.34
2024-02-29T14:57:34.788Z,100882.06
2024-02-29T15:00:36.574Z,100884.31
2024-02-29T15:03:38.490Z,100882.06
2024-02-29T15:06:40.994Z,100874.50
2024-02-29T15:09:42.991Z,100873.75
2024-02-29T15:12:51.810Z,100872.75
2024-02-29T15:16:20.905Z,100881.88
2024-02-29T15:19:27.030Z,100879.75
2024-02-29T15:22:29.192Z,100876.09
2024-02-29T15:25:30.998Z,100871.56
2024-02-29T15:28:33.632Z,100866.78
2024-02-29T15:31:37.110Z,100866.88
2024-02-29T15:34:38.905Z,100859.53
2024-02-29T15:37:40.703Z,100857.97
2024-02-29T15:40:44.359Z,100857.41
2024-02-29T15:43:46.914Z,100856.72
2024-02-29T15:46:51.364Z,100856.16
2024-02-29T15:49:53.242Z,100860.94
2024-02-29T15:52:56.265Z,100853.44
2024-02-29T15:56:00.183Z,100857.88
2024-02-29T15:59:03.154Z,100854.63
2024-02-29T16:02:04.963Z,100852.16
2024-02-29T16:05:07.200Z,100855.81
2024-02-29T16:08:09.090Z,100847.59
2024-02-29T16:11:11.636Z,100847.34
2024-02-29T16:14:13.865Z,100842.88
2024-02-29T16:17:15.657Z,100845.28
2024-02-29T16:20:17.685Z,100831.44
2024-02-29T16:23:20.249Z,100832.72
2024-02-29T16:26:22.316Z,100835.56
2024-02-29T16:29:24.073Z,100841.84
2024-02-29T16:32:26.193Z,100837.97
2024-02-29T16:35:28.176Z,100838.78
2024-02-29T16:38:30.233Z,100822.91
2024-02-29T16:41:32.359Z,100827.00
2024-02-29T16:44:34.325Z,100819.84
2024-02-29T16:47:36.256Z,100812.44
2024-02-29T16:51:05.965Z,100811.56
2024-02-29T16:54:07.805Z,100799.34
2024-02-29T16:57:11.958Z,100790.66
2024-02-29T17:00:19.231Z,100785.72
2024-02-29T17:03:21.635Z,100775.91
2024-02-29T17:06:23.884Z,100768.34
2024-02-29T17:09:27.731Z,100773.63
2024-02-29T17:12:31.900Z,100773.66
2024-02-29T17:15:36.573Z,100781.00
2024-02-29T17:18:39.921Z,100780.91
2024-02-29T17:21:43.009Z,100775.59
2024-02-29T17:24:46.682Z,100778.09
2024-02-29T17:27:48.616Z,100782.03
2024-02-29T17:30:50.644Z,100778.72
2024-02-29T17:33:53.129Z,100777.19
2024-02-29T17:36:54.939Z,100778.16
2024-02-29T17:39:57.159Z,100769.09
2024-02-29T17:42:59.334Z,100766.75
2024-02-29T17:46:01.430Z,100766.91
2024-02-29T17:49:03.731Z,100764.59
2024-02-29T17:52:07.558Z,100767.59
2024-02-29T17:55:09.690Z,100768.69
2024-02-29T17:58:12.012Z,100774.59
2024-02-29T18:01:13.930Z,100772.72
2024-02-29T18:04:15.753Z,100771.19
2024-02-29T18:07:17.682Z,100768.03
2024-02-29T18:10:19.811Z,100771.19
2024-02-29T18:13:22.014Z,100771.66
2024-02-29T18:16:24.182Z,100774.97
2024-02-29T18:19:27.227Z,100774.03
2024-02-29T18:22:29.515Z,100769.34
2024-02-29T18:25:31.460Z,100767.16
2024-02-29T18:28:34.824Z,100764.66
2024-02-29T18:31:36.904Z,100762.16
2024-02-29T18:34:39.139Z,100766.22
2024-02-29T18:37:41.496Z,100760.78
2024-02-29T18:40:44.809Z,100751.91
2024-02-29T18:43:47.377Z,100748.78
2024-02-29T18:46:49.290Z,100752.22
2024-02-29T18:49:51.317Z,100757.38
2024-02-29T18:52:53.461Z,100755.34
2024-02-29T18:55:55.595Z,100756.59
2024-02-29T18:58:57.967Z,100760.03
2024-02-29T19:02:01.575Z,100758.78
2024-02-29T19:05:04.304Z,100764.22
2024-02-29T19:08:07.026Z,100771.09
2024-02-29T19:11:09.099Z,100767.97
2024-02-29T19:14:12.534Z,100771.25
2024-02-29T19:17:14.374Z,100764.69
2024-02-29T19:20:16.633Z,100756.25
2024-02-29T19:23:18.534Z,100757.66
2024-02-29T19:26:21.563Z,100753.28
2024-02-29T19:29:23.339Z,100745.03
2024-02-29T19:32:27.160Z,100749.25
2024-02-29T19:35:29.317Z,100746.13
2024-02-29T19:38:31.134Z,100745.81
2024-02-29T19:41:33.310Z,100745.97
2024-02-29T19:44:35.361Z,100741.16
2024-02-29T19:47:41.670Z,100732.72
2024-02-29T19:50:43.449Z,100740.06
2024-02-29T19:53:45.533Z,100728.81
2024-02-29T19:56:47.940Z,100722.56
2024-02-29T19:59:49.928Z,100708.09
2024-02-29T20:02:51.775Z,100706.69
2024-02-29T20:05:53.887Z,100710.59
2024-02-29T20:08:56.094Z,100708.72
2024-02-29T20:11:58.185Z,100696.25
2024-02-29T20:15:01.505Z,100691.28
2024-02-29T20:18:03.755Z,100690.31
2024-02-29T20:21:05.981Z,100684.28
2024-02-29T20:24:08.798Z,100675.69
2024-02-29T20:27:11.168Z,100667.00
2024-02-29T20:30:15.787Z,100663.09
2024-02-29T20:33:17.681Z,100662.50
2024-02-29T20:36:19.479Z,100653.31
2024-02-29T20:39:21.299Z,100647.72
2024-02-29T20:42:23.097Z,100641.47
2024-02-29T20:45:25.892Z,100638.97
2024-02-29T20:48:27.663Z,100635.09
2024-02-29T20:51:29.531Z,100636.34
2024-02-29T20:54:31.846Z,100643.66
2024-02-29T20:57:33.807Z,100644.59
2024-02-29T21:00:36.253Z,100638.53
2024-02-29T21:03:38.037Z,100640.38
2024-02-29T21:06:39.861Z,100634.47
2024-02-29T21:09:41.752Z,100635.25
2024-02-29T21:12:43.837Z,100642.56
2024-02-29T21:15:45.684Z,100650.03
2024-02-29T21:18:47.451Z,100646.41
2024-02-29T21:21:49.312Z,100643.28
2024-02-29T21:24:51.134Z,100643.91
2024-02-29T21:27:52.986Z,100642.94
2024-02-29T21:30:56.251Z,100635.16
2024-02-29T21:33:58.450Z,100641.56
2024-02-29T21:37:00.556Z,100630.50
2024-02-29T21:40:02.793Z,100629.25
2024-02-29T21:43:05.013Z,100625.84
2024-02-29T21:46:08.689Z,100620.50
2024-02-29T21:49:10.500Z,100624.72
2024-02-29T21:52:13.001Z,100605.25
2024-02-29T21:55:16.483Z,100602.44
2024-02-29T21:58:18.931Z,100597.63
2024-02-29T22:01:20.860Z,100599.31
2024-02-29T22:04:23.180Z,100595.06
2024-02-29T22:07:25.128Z,100596.97
2024-02-29T22:10:26.998Z,100591.50
2024-02-29T22:13:29.002Z,100589.97
2024-02-29T22:16:30.886Z,100580.00
2024-02-29T22:19:33.326Z,100560.84
2024-02-29T22:22:35.802Z,100562.88
2024-02-29T22:25:37.626Z,100562.25
2024-02-29T22:28:39.370Z,100557.88
2024-02-29T22:31:42.279Z,100556.63
2024-02-29T22:34:44.185Z,100556.94
2024-02-29T22:37:46.048Z,100561.56
2024-02-29T22:40:47.823Z,100558.75
2024-02-29T22:43:49.859Z,100553.00
2024-02-29T22:46:52.559Z,100544.16
2024-02-29T22:49:54.375Z,100542.59
2024-02-29T22:52:57.928Z,100554.91
2024-02-29T22:55:59.953Z,100536.88
2024-02-29T22:59:01.826Z,100539.03
2024-02-29T23:02:05.169Z,100538.13
2024-02-29T23:05:07.337Z,100541.88
2024-02-29T23:08:11.363Z,100519.63
2024-02-29T23:11:13.492Z,100526.81
2024-02-29T23:14:15.441Z,100523.25
2024-02-29T23:17:17.525Z,100517.16
2024-02-29T23:20:19.470Z,100516.25
2024-02-29T23:23:21.268Z,100510.66
2024-02-29T23:26:23.032Z,100498.06
2024-02-29T23:29:24.887Z,100496.22
2024-02-29T23:32:26.623Z,100500.84
2024-02-29T23:35:28.381Z,100501.63
2024-02-29T23:38:30.110Z,100504.59
2024-02-29T23:41:31.930Z,100499.91
2024-02-29T23:44:34.207Z,100493.38
2024-02-29T23:47:36.010Z,100503.34
2024-02-29T23:50:38.305Z,100499.75
2024-02-29T23:53:40.109Z,100508.00
2024-02-29T23:56:41.894Z,100509.56
2024-02-29T23:59:43.656Z,100504.72
